createdAt,value
2019-05-17T00:01:46.904Z,4.33
2019-05-17T00:04:16.598Z,1.67
2019-05-17T00:06:47.455Z,3.53
2019-05-17T00:09:17.413Z,3.60
2019-05-17T00:11:47.215Z,3.70
2019-05-17T00:14:16.774Z,3.40
2019-05-17T00:16:46.898Z,3.43
2019-05-17T00:19:16.813Z,3.33
2019-05-17T00:21:47.319Z,2.73
2019-05-17T00:24:14.840Z,2.70
2019-05-17T00:26:43.133Z,2.80
2019-05-17T00:29:11.708Z,3.20
2019-05-17T00:31:40.066Z,4.53
2019-05-17T00:34:08.313Z,3.07
2019-05-17T00:36:37.535Z,3.07
2019-05-17T00:39:07.412Z,2.30
2019-05-17T00:41:37.461Z,2.70
2019-05-17T00:44:06.403Z,4.10
2019-05-17T00:46:37.263Z,3.77
2019-05-17T00:49:06.561Z,2.03
2019-05-17T00:51:36.959Z,2.07
2019-05-17T00:54:06.797Z,3.97
2019-05-17T00:56:37.184Z,3.20
2019-05-17T00:59:07.420Z,2.00
2019-05-17T01:01:36.507Z,2.50
2019-05-17T01:04:06.826Z,3.37
2019-05-17T01:06:37.362Z,3.20
2019-05-17T01:09:07.780Z,2.40
2019-05-17T01:11:36.598Z,2.47
2019-05-17T01:14:06.856Z,3.43
2019-05-17T01:16:36.791Z,3.63
2019-05-17T01:19:06.913Z,2.73
2019-05-17T01:21:36.725Z,2.47
2019-05-17T01:24:06.891Z,3.23
2019-05-17T01:26:37.440Z,2.97
2019-05-17T01:29:06.751Z,2.90
2019-05-17T01:31:37.288Z,2.80
2019-05-17T01:34:07.384Z,3.73
2019-05-17T01:36:37.017Z,3.37
2019-05-17T01:39:15.194Z,2.73
2019-05-17T01:41:37.260Z,3.07
2019-05-17T01:44:07.494Z,2.03
2019-05-17T01:46:36.988Z,2.83
2019-05-17T01:49:06.860Z,2.63
2019-05-17T01:51:37.012Z,3.60
2019-05-17T01:54:06.841Z,2.70
2019-05-17T01:56:36.949Z,2.80
2019-05-17T01:59:06.865Z,2.20
2019-05-17T02:01:37.151Z,3.03
2019-05-17T02:04:06.636Z,2.90
2019-05-17T02:06:36.615Z,2.37
2019-05-17T02:09:06.392Z,2.87
2019-05-17T02:11:37.058Z,3.47
2019-05-17T02:14:06.819Z,3.53
2019-05-17T02:16:37.145Z,2.47
2019-05-17T02:19:06.757Z,2.80
2019-05-17T02:21:36.757Z,5.03
2019-05-17T02:24:07.760Z,2.67
2019-05-17T02:26:37.359Z,2.53
2019-05-17T02:29:05.233Z,2.50
2019-05-17T02:31:33.806Z,2.00
2019-05-17T02:34:03.084Z,2.47
2019-05-17T02:36:33.221Z,1.87
2019-05-17T02:39:03.560Z,2.20
2019-05-17T02:41:33.296Z,3.27
2019-05-17T02:44:02.481Z,2.80
2019-05-17T02:46:33.715Z,2.50
2019-05-17T02:49:03.143Z,3.77
2019-05-17T02:51:32.434Z,1.80
2019-05-17T02:54:04.258Z,2.27
2019-05-17T02:56:32.735Z,2.53
2019-05-17T02:59:03.667Z,2.03
2019-05-17T03:01:33.173Z,2.17
2019-05-17T03:04:03.874Z,2.40
2019-05-17T03:06:32.853Z,1.90
2019-05-17T03:09:03.506Z,2.30
2019-05-17T03:11:33.254Z,2.67
2019-05-17T03:14:03.991Z,2.83
2019-05-17T03:16:33.938Z,1.90
2019-05-17T03:19:04.171Z,2.90
2019-05-17T03:21:33.815Z,2.23
2019-05-17T03:24:03.177Z,2.17
2019-05-17T03:26:32.765Z,3.23
2019-05-17T03:29:03.434Z,1.77
2019-05-17T03:31:40.732Z,2.03
2019-05-17T03:34:06.868Z,1.90
2019-05-17T03:36:36.422Z,2.03
2019-05-17T03:39:03.151Z,2.57
2019-05-17T03:41:34.010Z,1.97
2019-05-17T03:44:03.208Z,2.23
2019-05-17T03:46:33.403Z,1.73
2019-05-17T03:49:03.769Z,1.37
2019-05-17T03:51:33.308Z,1.40
2019-05-17T03:54:02.561Z,2.03
2019-05-17T03:56:32.969Z,2.10
2019-05-17T03:59:03.836Z,2.97
2019-05-17T04:01:32.813Z,2.03
2019-05-17T04:04:02.833Z,1.90
2019-05-17T04:06:32.846Z,2.20
2019-05-17T04:09:03.612Z,1.97
2019-05-17T04:11:35.914Z,2.53
2019-05-17T04:14:02.947Z,1.77
2019-05-17T04:16:34.014Z,2.03
2019-05-17T04:19:03.137Z,1.97
2019-05-17T04:21:34.242Z,1.93
2019-05-17T04:24:03.219Z,2.60
2019-05-17T04:26:32.561Z,1.73
2019-05-17T04:29:03.546Z,2.37
2019-05-17T04:31:34.938Z,1.40
2019-05-17T04:34:03.036Z,2.47
2019-05-17T04:36:32.346Z,1.70
2019-05-17T04:39:02.428Z,1.80
2019-05-17T04:41:41.266Z,2.10
2019-05-17T04:44:02.717Z,1.40
2019-05-17T04:46:32.704Z,2.60
2019-05-17T04:49:02.999Z,2.37
2019-05-17T04:51:32.424Z,2.33
2019-05-17T04:54:03.256Z,2.13
2019-05-17T04:56:33.360Z,2.10
2019-05-17T04:59:03.401Z,2.03
2019-05-17T05:01:33.020Z,2.33
2019-05-17T05:04:03.584Z,1.73
2019-05-17T05:06:32.793Z,1.50
2019-05-17T05:09:02.567Z,2.17
2019-05-17T05:11:32.777Z,2.30
2019-05-17T05:14:02.856Z,2.13
2019-05-17T05:16:32.038Z,2.33
2019-05-17T05:19:02.962Z,1.87
2019-05-17T05:21:32.258Z,1.50
2019-05-17T05:24:02.460Z,1.87
2019-05-17T05:26:31.771Z,1.83
2019-05-17T05:29:02.139Z,1.70
2019-05-17T05:31:32.161Z,1.73
2019-05-17T05:34:01.908Z,1.60
2019-05-17T05:36:32.638Z,1.83
2019-05-17T05:39:02.375Z,1.80
2019-05-17T05:41:31.979Z,1.77
2019-05-17T05:44:01.848Z,2.10
2019-05-17T05:46:31.785Z,2.57
2019-05-17T05:49:01.764Z,1.57
2019-05-17T05:51:32.070Z,1.80
2019-05-17T05:54:01.666Z,2.57
2019-05-17T05:56:32.470Z,2.60
2019-05-17T05:59:02.700Z,4.03
2019-05-17T06:01:32.486Z,2.33
2019-05-17T06:04:02.538Z,1.40
2019-05-17T06:06:32.170Z,2.13
2019-05-17T06:09:02.682Z,2.23
2019-05-17T06:11:32.171Z,2.27
2019-05-17T06:14:01.652Z,1.33
2019-05-17T06:16:32.128Z,2.20
2019-05-17T06:19:02.195Z,1.70
2019-05-17T06:21:31.973Z,2.87
2019-05-17T06:24:02.400Z,1.93
2019-05-17T06:26:31.514Z,2.07
2019-05-17T06:29:02.582Z,2.70
2019-05-17T06:31:30.209Z,10.03
2019-05-17T06:33:58.522Z,2.83
2019-05-17T06:36:26.763Z,2.13
2019-05-17T06:38:55.077Z,2.97
2019-05-17T06:41:23.340Z,1.90
2019-05-17T06:43:52.429Z,3.63
2019-05-17T06:46:21.963Z,2.40
2019-05-17T06:48:52.845Z,2.13
2019-05-17T06:51:22.104Z,1.83
2019-05-17T06:53:52.364Z,5.83
2019-05-17T06:56:22.800Z,10.60
2019-05-17T06:58:50.727Z,4.47
2019-05-17T07:01:19.672Z,2.53
2019-05-17T07:03:49.544Z,2.43
2019-05-17T07:06:21.523Z,3.03
2019-05-17T07:08:49.593Z,2.47
2019-05-17T07:11:17.929Z,2.63
2019-05-17T07:13:46.473Z,2.83
2019-05-17T07:16:14.726Z,4.93
2019-05-17T07:18:42.992Z,2.63
2019-05-17T07:21:11.296Z,3.10
2019-05-17T07:23:40.214Z,2.53
2019-05-17T07:26:11.348Z,2.77
2019-05-17T07:28:40.475Z,2.03
2019-05-17T07:31:10.162Z,1.57
2019-05-17T07:33:39.865Z,1.70
2019-05-17T07:36:10.221Z,3.33
2019-05-17T07:38:39.670Z,2.17
2019-05-17T07:41:10.127Z,2.60
2019-05-17T07:43:40.524Z,3.30
2019-05-17T07:46:09.617Z,2.47
2019-05-17T07:48:40.315Z,2.13
2019-05-17T07:51:09.974Z,2.33
2019-05-17T07:53:39.980Z,1.77
2019-05-17T07:56:10.103Z,1.97
2019-05-17T07:58:40.254Z,3.17
2019-05-17T08:01:10.084Z,2.07
2019-05-17T08:03:40.359Z,2.00
2019-05-17T08:06:10.350Z,2.43
2019-05-17T08:08:40.724Z,1.60
2019-05-17T08:11:10.609Z,2.03
2019-05-17T08:13:39.838Z,1.77
2019-05-17T08:16:10.259Z,2.03
2019-05-17T08:18:40.287Z,1.70
2019-05-17T08:21:10.390Z,2.53
2019-05-17T08:23:39.986Z,2.37
2019-05-17T08:26:10.476Z,1.60
2019-05-17T08:28:40.435Z,2.50
2019-05-17T08:31:09.871Z,2.30
2019-05-17T08:33:40.476Z,2.13
2019-05-17T08:36:09.345Z,2.53
2019-05-17T08:38:39.338Z,3.07
2019-05-17T08:41:10.341Z,2.17
2019-05-17T08:43:45.741Z,1.70
2019-05-17T08:46:10.372Z,2.03
2019-05-17T08:48:40.115Z,2.40
2019-05-17T08:51:10.586Z,2.07
2019-05-17T08:53:39.899Z,2.30
2019-05-17T08:56:10.018Z,2.00
2019-05-17T08:58:40.313Z,2.30
2019-05-17T09:01:11.250Z,2.17
2019-05-17T09:03:41.040Z,2.20
2019-05-17T09:06:11.955Z,2.20
2019-05-17T09:08:40.551Z,1.83
2019-05-17T09:11:09.929Z,1.77
2019-05-17T09:13:41.243Z,1.90
2019-05-17T09:16:10.541Z,2.23
2019-05-17T09:18:39.419Z,2.70
2019-05-17T09:21:09.779Z,2.03
2019-05-17T09:23:39.656Z,2.00
2019-05-17T09:26:09.999Z,2.20
2019-05-17T09:28:39.375Z,2.30
2019-05-17T09:31:10.231Z,2.33
2019-05-17T09:33:37.844Z,1.70
2019-05-17T09:36:06.118Z,2.20
2019-05-17T09:38:34.381Z,2.10
2019-05-17T09:41:02.724Z,2.43
2019-05-17T09:43:31.009Z,2.00
2019-05-17T09:46:01.719Z,1.80
2019-05-17T09:48:30.659Z,2.80
2019-05-17T09:50:59.906Z,2.10
2019-05-17T09:53:30.492Z,2.10
2019-05-17T09:56:00.566Z,2.20
2019-05-17T09:58:29.945Z,2.13
2019-05-17T10:01:01.438Z,1.87
2019-05-17T10:03:30.802Z,2.93
2019-05-17T10:06:00.021Z,2.40
2019-05-17T10:08:28.510Z,2.00
2019-05-17T10:11:06.000Z,2.10
2019-05-17T10:13:26.888Z,2.80
2019-05-17T10:15:55.125Z,2.13
2019-05-17T10:18:23.393Z,2.20
2019-05-17T10:20:51.978Z,2.60
2019-05-17T10:23:20.312Z,1.90
2019-05-17T10:25:48.580Z,2.20
2019-05-17T10:28:16.832Z,2.43
2019-05-17T10:30:45.112Z,2.20
2019-05-17T10:33:13.450Z,2.10
2019-05-17T10:35:41.962Z,2.20
2019-05-17T10:38:10.518Z,1.90
2019-05-17T10:40:40.793Z,2.40
2019-05-17T10:43:10.029Z,2.60
2019-05-17T10:45:40.142Z,2.37
2019-05-17T10:48:10.310Z,2.23
2019-05-17T10:50:40.779Z,2.10
2019-05-17T10:53:09.973Z,2.33
2019-05-17T10:55:39.675Z,2.20
2019-05-17T10:58:09.922Z,2.00
2019-05-17T11:00:40.977Z,2.57
2019-05-17T11:03:09.729Z,2.30
2019-05-17T11:05:40.234Z,1.97
2019-05-17T11:08:10.767Z,2.67
2019-05-17T11:10:41.934Z,2.63
2019-05-17T11:13:10.701Z,2.23
2019-05-17T11:15:40.596Z,2.50
2019-05-17T11:18:09.664Z,2.30
2019-05-17T11:20:39.328Z,3.00
2019-05-17T11:23:09.584Z,2.73
2019-05-17T11:25:44.623Z,2.07
2019-05-17T11:28:08.613Z,2.20
2019-05-17T11:30:39.107Z,2.50
2019-05-17T11:33:08.854Z,2.17
2019-05-17T11:35:39.450Z,2.50
2019-05-17T11:38:08.612Z,2.40
2019-05-17T11:40:37.425Z,2.53
2019-05-17T11:43:05.840Z,2.40
2019-05-17T11:45:34.568Z,2.97
2019-05-17T11:48:03.092Z,2.30
2019-05-17T11:50:31.972Z,2.27
2019-05-17T11:53:02.684Z,2.40
2019-05-17T11:55:31.073Z,5.27
2019-05-17T11:57:59.493Z,89.17
2019-05-17T12:00:27.891Z,105.87
2019-05-17T12:02:56.287Z,91.60
2019-05-17T12:05:24.651Z,76.63
2019-05-17T12:07:53.112Z,59.93
2019-05-17T12:10:21.517Z,69.17
2019-05-17T12:12:49.872Z,49.43
2019-05-17T12:15:18.512Z,51.60
2019-05-17T12:17:47.006Z,37.50
2019-05-17T12:20:15.416Z,53.60
2019-05-17T12:22:43.875Z,35.73
2019-05-17T12:25:12.589Z,34.80
2019-05-17T12:27:40.963Z,48.70
2019-05-17T12:30:09.888Z,45.93
2019-05-17T12:32:38.712Z,41.07
2019-05-17T12:35:07.303Z,46.53
2019-05-17T12:37:35.632Z,39.50
2019-05-17T12:40:06.357Z,41.73
2019-05-17T12:42:34.685Z,34.07
2019-05-17T12:45:04.081Z,31.30
2019-05-17T12:47:32.408Z,27.60
2019-05-17T12:50:00.677Z,33.47
2019-05-17T12:52:28.923Z,25.10
2019-05-17T12:54:57.216Z,34.30
2019-05-17T12:57:25.726Z,32.67
2019-05-17T12:59:53.990Z,31.53
2019-05-17T13:02:22.239Z,29.17
2019-05-17T13:04:50.519Z,20.43
2019-05-17T13:07:19.045Z,26.37
2019-05-17T13:09:47.314Z,25.67
2019-05-17T13:12:15.638Z,26.43
2019-05-17T13:14:43.906Z,22.67
2019-05-17T13:17:12.445Z,25.70
2019-05-17T13:19:41.132Z,31.07
2019-05-17T13:22:09.421Z,22.97
2019-05-17T13:24:37.701Z,25.73
2019-05-17T13:27:05.950Z,28.38
2019-05-17T13:29:34.225Z,25.60
2019-05-17T13:32:02.501Z,27.80
2019-05-17T13:34:31.104Z,28.27
2019-05-17T13:36:59.356Z,33.87
2019-05-17T13:39:27.962Z,37.17
2019-05-17T13:41:56.242Z,29.80
2019-05-17T13:44:24.793Z,27.57
2019-05-17T13:46:53.247Z,29.50
2019-05-17T13:49:21.795Z,36.30
2019-05-17T13:51:50.071Z,24.57
2019-05-17T13:54:18.336Z,35.67
2019-05-17T13:56:46.618Z,32.20
2019-05-17T13:59:14.878Z,27.20
2019-05-17T14:01:43.185Z,35.73
2019-05-17T14:04:11.431Z,28.80
2019-05-17T14:06:39.779Z,31.87
2019-05-17T14:09:08.719Z,30.33
2019-05-17T14:11:36.985Z,26.27
2019-05-17T14:14:05.253Z,33.23
2019-05-17T14:16:34.675Z,24.80
2019-05-17T14:19:03.168Z,23.17
2019-05-17T14:21:31.429Z,34.87
2019-05-17T14:23:59.769Z,35.63
2019-05-17T14:26:28.137Z,33.93
2019-05-17T14:28:56.417Z,37.53
2019-05-17T14:31:24.665Z,38.83
2019-05-17T14:33:52.991Z,31.57
2019-05-17T14:36:21.270Z,34.60
2019-05-17T14:38:49.882Z,37.17
2019-05-17T14:41:18.136Z,27.23
2019-05-17T14:43:46.750Z,36.83
2019-05-17T14:46:15.063Z,39.73
2019-05-17T14:48:43.403Z,42.90
2019-05-17T14:51:12.018Z,24.33
2019-05-17T14:53:40.362Z,34.13
2019-05-17T14:56:08.610Z,32.73
2019-05-17T14:58:36.886Z,33.63
2019-05-17T15:01:05.139Z,35.37
2019-05-17T15:03:33.422Z,32.60
2019-05-17T15:06:01.740Z,37.97
2019-05-17T15:08:30.431Z,36.23
2019-05-17T15:10:59.015Z,30.50
2019-05-17T15:13:27.260Z,32.97
2019-05-17T15:15:55.876Z,31.57
2019-05-17T15:18:24.126Z,40.93
2019-05-17T15:20:52.394Z,25.73
2019-05-17T15:23:20.760Z,36.00
2019-05-17T15:25:49.058Z,34.67
2019-05-17T15:28:17.700Z,31.80
2019-05-17T15:30:45.954Z,25.97
2019-05-17T15:33:14.217Z,32.40
2019-05-17T15:35:42.802Z,29.67
2019-05-17T15:38:11.434Z,54.33
2019-05-17T15:40:39.738Z,31.83
2019-05-17T15:43:08.387Z,36.80
2019-05-17T15:45:36.938Z,30.30
2019-05-17T15:48:05.211Z,27.87
2019-05-17T15:50:33.811Z,33.70
2019-05-17T15:53:02.088Z,35.70
2019-05-17T15:55:30.342Z,27.20
2019-05-17T15:57:58.617Z,36.17
2019-05-17T16:00:27.218Z,35.20
2019-05-17T16:02:55.454Z,37.43
2019-05-17T16:05:23.746Z,31.93
2019-05-17T16:07:52.446Z,35.17
2019-05-17T16:10:20.788Z,28.33
2019-05-17T16:13:01.592Z,32.67
2019-05-17T16:15:19.054Z,30.53
2019-05-17T16:17:47.706Z,24.60
2019-05-17T16:20:16.975Z,24.90
2019-05-17T16:22:45.907Z,33.65
2019-05-17T16:25:14.244Z,27.30
2019-05-17T16:27:42.504Z,34.30
2019-05-17T16:30:10.778Z,31.07
2019-05-17T16:32:39.046Z,29.47
2019-05-17T16:35:07.348Z,28.13
2019-05-17T16:37:35.685Z,32.20
2019-05-17T16:40:06.036Z,28.33
2019-05-17T16:42:34.373Z,24.43
2019-05-17T16:45:02.717Z,20.67
2019-05-17T16:47:31.088Z,23.97
2019-05-17T16:49:59.690Z,23.03
2019-05-17T16:52:28.014Z,24.70
2019-05-17T16:54:56.375Z,19.03
2019-05-17T16:57:24.661Z,30.20
2019-05-17T16:59:52.912Z,30.43
2019-05-17T17:02:21.177Z,30.27
2019-05-17T17:04:49.860Z,31.63
2019-05-17T17:07:18.133Z,24.73
2019-05-17T17:09:46.657Z,26.93
2019-05-17T17:12:14.933Z,25.83
2019-05-17T17:14:43.209Z,24.93
2019-05-17T17:17:12.984Z,32.47
2019-05-17T17:19:41.547Z,27.90
2019-05-17T17:22:09.926Z,25.30
2019-05-17T17:24:38.289Z,27.70
2019-05-17T17:27:06.558Z,32.37
2019-05-17T17:29:34.886Z,28.20
2019-05-17T17:32:03.198Z,31.60
2019-05-17T17:34:31.482Z,37.00
2019-05-17T17:36:59.857Z,29.80
2019-05-17T17:39:28.125Z,26.77
2019-05-17T17:41:56.419Z,26.47
2019-05-17T17:44:24.716Z,25.40
2019-05-17T17:46:53.059Z,26.63
2019-05-17T17:49:21.381Z,36.80
2019-05-17T17:51:50.129Z,28.20
2019-05-17T17:54:18.473Z,28.00
2019-05-17T17:56:46.763Z,28.47
2019-05-17T17:59:15.389Z,25.00
2019-05-17T18:01:43.722Z,25.27
2019-05-17T18:04:13.253Z,19.67
2019-05-17T18:06:41.930Z,26.30
2019-05-17T18:09:10.206Z,19.37
2019-05-17T18:11:38.537Z,29.50
2019-05-17T18:14:13.471Z,20.00
2019-05-17T18:16:38.977Z,18.00
2019-05-17T18:19:07.320Z,19.33
2019-05-17T18:21:35.946Z,23.63
2019-05-17T18:24:04.794Z,19.53
2019-05-17T18:26:33.490Z,21.67
2019-05-17T18:29:01.747Z,15.63
2019-05-17T18:31:30.019Z,18.00
2019-05-17T18:33:58.266Z,14.60
2019-05-17T18:36:26.711Z,16.80
2019-05-17T18:38:55.294Z,15.37
2019-05-17T18:41:23.575Z,14.33
2019-05-17T18:43:51.856Z,22.40
2019-05-17T18:46:21.022Z,12.40
2019-05-17T18:48:49.323Z,16.17
2019-05-17T18:51:17.606Z,14.20
2019-05-17T18:53:45.900Z,10.70
2019-05-17T18:56:14.150Z,13.97
2019-05-17T18:58:42.445Z,13.50
2019-05-17T19:01:11.589Z,19.97
2019-05-17T19:03:39.936Z,13.80
2019-05-17T19:06:08.465Z,11.93
2019-05-17T19:08:36.790Z,11.67
2019-05-17T19:11:05.278Z,11.53
2019-05-17T19:13:33.553Z,12.73
2019-05-17T19:16:01.812Z,13.27
2019-05-17T19:18:30.098Z,11.30
2019-05-17T19:20:58.364Z,13.93
2019-05-17T19:23:27.083Z,15.60
2019-05-17T19:25:55.361Z,12.90
2019-05-17T19:28:23.637Z,12.40
2019-05-17T19:30:52.170Z,7.73
2019-05-17T19:33:20.450Z,7.47
2019-05-17T19:35:48.697Z,8.70
2019-05-17T19:38:16.983Z,12.90
2019-05-17T19:40:45.246Z,11.57
2019-05-17T19:43:13.572Z,13.17
2019-05-17T19:45:41.819Z,10.53
2019-05-17T19:48:10.439Z,9.67
2019-05-17T19:50:38.725Z,7.80
2019-05-17T19:53:06.996Z,11.60
2019-05-17T19:55:35.558Z,8.57
2019-05-17T19:58:03.870Z,7.53
2019-05-17T20:00:32.142Z,10.90
2019-05-17T20:03:00.396Z,11.57
2019-05-17T20:05:28.984Z,10.60
2019-05-17T20:07:57.377Z,9.83
2019-05-17T20:10:25.694Z,14.00
2019-05-17T20:12:53.947Z,9.23
2019-05-17T20:15:33.478Z,11.27
2019-05-17T20:17:52.190Z,10.27
2019-05-17T20:20:20.431Z,8.23
2019-05-17T20:22:48.711Z,7.83
2019-05-17T20:25:16.949Z,8.07
2019-05-17T20:27:45.401Z,9.00
2019-05-17T20:30:13.861Z,10.23
2019-05-17T20:32:42.126Z,11.97
2019-05-17T20:35:10.437Z,8.73
2019-05-17T20:37:39.037Z,10.93
2019-05-17T20:40:07.850Z,8.40
2019-05-17T20:42:36.206Z,8.70
2019-05-17T20:45:07.869Z,6.37
2019-05-17T20:47:36.125Z,8.70
2019-05-17T20:50:06.514Z,10.57
2019-05-17T20:52:35.142Z,7.53
2019-05-17T20:55:03.605Z,7.60
2019-05-17T20:57:31.886Z,8.27
2019-05-17T21:00:00.162Z,8.73
2019-05-17T21:02:28.760Z,6.27
2019-05-17T21:04:57.341Z,6.90
2019-05-17T21:07:25.596Z,8.30
2019-05-17T21:09:53.904Z,6.37
2019-05-17T21:12:22.305Z,6.87
2019-05-17T21:14:50.950Z,7.80
2019-05-17T21:17:19.246Z,5.77
2019-05-17T21:19:47.529Z,8.97
2019-05-17T21:22:16.611Z,5.53
2019-05-17T21:24:44.939Z,6.60
2019-05-17T21:27:13.173Z,8.33
2019-05-17T21:29:41.490Z,7.07
2019-05-17T21:32:09.732Z,6.73
2019-05-17T21:34:38.004Z,6.47
2019-05-17T21:37:06.593Z,6.60
2019-05-17T21:39:34.857Z,7.23
2019-05-17T21:42:03.134Z,5.13
2019-05-17T21:44:31.474Z,7.10
2019-05-17T21:47:04.709Z,7.10
2019-05-17T21:49:29.998Z,4.93
2019-05-17T21:51:58.324Z,5.80
2019-05-17T21:54:26.583Z,6.07
2019-05-17T21:56:54.830Z,6.20
2019-05-17T21:59:23.427Z,5.03
2019-05-17T22:01:52.303Z,6.80
2019-05-17T22:04:20.593Z,5.23
2019-05-17T22:06:48.863Z,5.27
2019-05-17T22:09:17.205Z,5.20
2019-05-17T22:11:47.132Z,5.87
2019-05-17T22:14:15.392Z,9.17
2019-05-17T22:16:43.671Z,6.47
2019-05-17T22:19:11.939Z,5.57
2019-05-17T22:21:40.222Z,5.37
2019-05-17T22:24:08.529Z,6.50
2019-05-17T22:26:37.111Z,5.20
2019-05-17T22:29:05.413Z,6.67
2019-05-17T22:31:33.690Z,5.33
2019-05-17T22:34:01.954Z,5.43
2019-05-17T22:36:30.645Z,7.17
2019-05-17T22:38:59.229Z,4.53
2019-05-17T22:41:27.508Z,5.30
2019-05-17T22:43:56.093Z,6.10
2019-05-17T22:46:35.762Z,5.90
2019-05-17T22:48:54.427Z,5.23
2019-05-17T22:51:22.681Z,5.30
2019-05-17T22:53:50.939Z,4.87
2019-05-17T22:56:19.221Z,5.33
2019-05-17T22:58:47.541Z,5.73
2019-05-17T23:01:15.825Z,5.13
2019-05-17T23:03:44.103Z,4.70
2019-05-17T23:06:12.363Z,4.90
2019-05-17T23:08:41.010Z,4.53
2019-05-17T23:11:09.261Z,5.27
2019-05-17T23:13:37.541Z,5.90
2019-05-17T23:16:07.431Z,4.57
2019-05-17T23:18:35.899Z,5.77
2019-05-17T23:21:04.646Z,6.07
2019-05-17T23:23:32.916Z,4.73
2019-05-17T23:26:01.193Z,5.37
2019-05-17T23:28:29.900Z,6.80
2019-05-17T23:30:58.162Z,5.40
2019-05-17T23:33:26.410Z,4.87
2019-05-17T23:35:54.689Z,5.03
2019-05-17T23:38:23.193Z,4.30
2019-05-17T23:40:51.465Z,5.17
2019-05-17T23:43:19.740Z,4.27
2019-05-17T23:45:48.367Z,4.83
2019-05-17T23:48:16.666Z,5.10
2019-05-17T23:50:44.932Z,4.50
2019-05-17T23:53:13.202Z,5.40
2019-05-17T23:55:41.497Z,4.50
2019-05-17T23:58:09.791Z,5.30
